CAYO ARENAS MX current weather conditions

sailwx.info

Wind from 141 at 4 knots gusting 5

Air temperature 25.7° C
Dewpoint 22.1° C

Last reported at 2019-Dec-13 01:45 UTC.
Time now 2019-Dec-13 03:08 UTC

Location: N 22°07' W 091°24'.
View on Google Maps.

See reports from other nearby stations

  
Tides and Currents Weather Stations Pressure Air Temp Water Temp Dewpoint Dewpoint Depression Visibility Wind Speed Wind Dir Waves Ship Positions
date/time (UTC)wind fromknots sea level pressurealtimeterstation pressurevisibilityair tempwater tempwave heightnotes
2019-Dec-13 01:45 141 4 gusting 5 25.7
2019-Dec-13 00:45 136 5 gusting 7 25.9
2019-Dec-12 23:45 139 6 gusting 7 26.1
2019-Dec-12 22:45 144 5 gusting 7 26.7
2019-Dec-12 21:45 135 5 gusting 6 27.5
2019-Dec-12 20:45 136 4 gusting 6 28.6
2019-Dec-12 19:45 156 2 gusting 6 29.3
2019-Dec-12 18:45 180 1 gusting 4 29.4
2019-Dec-12 17:45 240 1 gusting 2 28.2
2019-Dec-12 16:45 208 3 gusting 5 27.1
2019-Dec-12 15:45 160 5 gusting 8 27.3
2019-Dec-12 14:45 166 5 gusting 7 26.4
2019-Dec-12 13:45 144 7 gusting 10 26.0
2019-Dec-12 12:45 160 4 gusting 7 25.8
2019-Dec-12 11:45 156 6 gusting 8 25.8
2019-Dec-12 10:45 150 7 gusting 10 25.8
2019-Dec-12 09:45 146 8 gusting 11 25.9
2019-Dec-12 08:45 129 7 gusting 9 25.9
2019-Dec-12 07:45 136 8 gusting 9 26.0
2019-Dec-12 06:45 134 9 gusting 11 26.0
2019-Dec-12 05:45 125 11 gusting 13 26.1
2019-Dec-12 04:45 121 8 gusting 11 26.0
2019-Dec-12 03:45 113 8 gusting 11 25.9
2019-Dec-12 02:45 093 9 gusting 12 26.1
2019-Dec-12 01:45 097 9 gusting 12 26.0
2019-Dec-12 00:45 106 7 gusting 11 25.8
2019-Dec-11 23:45 095 6 gusting 9 25.7
2019-Dec-11 22:45 100 7 gusting 10 26.0
2019-Dec-11 21:45 057 6 gusting 9 26.4
2019-Dec-11 20:45 042 4 gusting 5 27.0
2019-Dec-11 19:45 069 2 gusting 4 27.6
2019-Dec-11 18:45 037 5 gusting 6 26.9
2019-Dec-11 17:45 244 5 gusting 8 28.8
2019-Dec-11 16:45 219 7 gusting 10 28.0
2019-Dec-11 15:45 207 6 gusting 10 26.8
2019-Dec-11 14:45 199 6 gusting 10 27.3
2019-Dec-11 13:45 190 5 gusting 10 26.5
2019-Dec-11 12:45 189 4 gusting 7 26.1
2019-Dec-11 11:45 167 4 gusting 7 26.1
2019-Dec-11 10:45 159 6 gusting 9 26.1
2019-Dec-11 09:45 149 6 gusting 9 25.8
2019-Dec-11 08:45 093 7 gusting 11 26.3
2019-Dec-11 07:45 083 7 gusting 10 26.3
2019-Dec-11 06:45 080 6 gusting 11 26.3
2019-Dec-11 05:45 091 7 gusting 11 26.4
2019-Dec-11 04:45 095 8 gusting 11 26.5
2019-Dec-11 03:45 095 9 gusting 12 26.4